Tijucas, Brazil
Current Conditions -  °F | °C
As of 6:00 AM on Thursday 29 Jan 2015 (Local Time) from SBNF Reporting Station
Haze Haze  
Wind Chill: 79°   Ceiling: Unl
Heat Index: 83°   Visibility: 3mi
Dew Point: 77°   Wind: 6mph
Humidity: 94%   Direction: 270°W
Pressure: 29.74"   Gusts: NA
Location:  27.21°S, 48.61°W
Report Text: SBNF 290800Z 27005KT 5000 BR SCT006 26/25 Q1007
Loading
Personal Weather Stations






























Interactive Weather Map New forecast layout! Learn more

10-Day Weather Forecast

Advertisements
Track Severe Weather on mobile